createdAt,value
2018-08-07T00:00:04.539Z,14.45
2018-08-07T00:01:04.527Z,14.54
2018-08-07T00:02:04.515Z,14.54
2018-08-07T00:03:04.502Z,14.54
2018-08-07T00:04:04.486Z,14.36
2018-08-07T00:05:04.472Z,14.49
2018-08-07T00:06:04.460Z,14.56
2018-08-07T00:07:04.448Z,14.61
2018-08-07T00:08:04.434Z,14.54
2018-08-07T00:09:04.419Z,14.66
2018-08-07T00:10:04.409Z,14.66
2018-08-07T00:11:04.395Z,14.69
2018-08-07T00:12:04.382Z,14.60
2018-08-07T00:13:04.368Z,14.69
2018-08-07T00:14:04.357Z,14.66
2018-08-07T00:15:04.345Z,14.69
2018-08-07T00:16:04.331Z,14.78
2018-08-07T00:17:04.320Z,14.82
2018-08-07T00:18:04.309Z,14.80
2018-08-07T00:19:04.295Z,14.86
2018-08-07T00:20:04.283Z,14.80
2018-08-07T00:21:04.269Z,14.82
2018-08-07T00:22:04.283Z,14.83
2018-08-07T00:23:04.245Z,14.78
2018-08-07T00:24:04.233Z,14.82
2018-08-07T00:25:04.221Z,14.86
2018-08-07T00:26:04.209Z,14.83
2018-08-07T00:27:04.197Z,14.83
2018-08-07T00:28:04.186Z,14.93
2018-08-07T00:29:04.172Z,14.79
2018-08-07T00:30:04.160Z,14.80
2018-08-07T00:31:04.148Z,14.85
2018-08-07T00:32:04.136Z,14.80
2018-08-07T00:33:04.124Z,14.90
2018-08-07T00:34:04.118Z,14.80
2018-08-07T00:35:04.099Z,14.79
2018-08-07T00:36:04.089Z,14.90
2018-08-07T00:37:04.076Z,14.86
2018-08-07T00:38:04.062Z,14.83
2018-08-07T00:39:04.050Z,14.86
2018-08-07T00:40:04.038Z,14.85
2018-08-07T00:41:04.032Z,14.86
2018-08-07T00:42:04.014Z,14.86
2018-08-07T00:43:04.001Z,14.93
2018-08-07T00:44:03.989Z,14.90
2018-08-07T00:45:03.978Z,14.78
2018-08-07T00:46:03.964Z,14.87
2018-08-07T00:47:03.952Z,14.85
2018-08-07T00:48:03.940Z,14.85
2018-08-07T00:49:03.928Z,14.83
2018-08-07T00:50:03.941Z,14.85
2018-08-07T00:51:03.904Z,14.72
2018-08-07T00:52:03.886Z,14.66
2018-08-07T00:53:03.873Z,14.66
2018-08-07T00:54:03.863Z,14.63
2018-08-07T00:55:03.849Z,14.63
2018-08-07T00:56:03.837Z,14.63
2018-08-07T00:57:03.823Z,14.75
2018-08-07T00:58:03.813Z,14.64
2018-08-07T00:59:03.800Z,14.66
2018-08-07T01:00:03.789Z,14.74
2018-08-07T01:01:03.774Z,14.69
2018-08-07T01:02:03.764Z,14.82
2018-08-07T01:03:03.752Z,14.78
2018-08-07T01:04:03.738Z,14.79
2018-08-07T01:05:03.724Z,14.69
2018-08-07T01:06:03.712Z,14.66
2018-08-07T01:07:03.700Z,14.85
2018-08-07T01:08:03.722Z,14.71
2018-08-07T01:09:03.680Z,14.74
2018-08-07T01:10:03.667Z,14.67
2018-08-07T01:11:03.653Z,14.71
2018-08-07T01:12:03.639Z,14.66
2018-08-07T01:13:03.629Z,14.64
2018-08-07T01:14:03.613Z,14.64
2018-08-07T01:15:03.604Z,14.72
2018-08-07T01:16:03.589Z,14.83
2018-08-07T01:17:03.577Z,14.71
2018-08-07T01:18:03.567Z,14.67
2018-08-07T01:19:03.554Z,14.69
2018-08-07T01:20:03.541Z,14.66
2018-08-07T01:21:03.529Z,14.78
2018-08-07T01:22:03.515Z,14.71
2018-08-07T01:23:03.507Z,14.85
2018-08-07T01:24:03.497Z,14.79
2018-08-07T01:25:03.478Z,14.83
2018-08-07T01:26:03.467Z,14.67
2018-08-07T01:27:03.523Z,14.75
2018-08-07T01:28:03.442Z,14.66
2018-08-07T01:29:03.432Z,14.66
2018-08-07T01:30:03.418Z,14.72
2018-08-07T01:31:03.407Z,14.83
2018-08-07T01:32:03.393Z,14.79
2018-08-07T01:33:03.380Z,14.86
2018-08-07T01:34:03.368Z,14.79
2018-08-07T01:35:03.356Z,14.83
2018-08-07T01:36:03.345Z,14.79
2018-08-07T01:37:03.331Z,14.82
2018-08-07T01:38:03.319Z,14.74
2018-08-07T01:39:03.307Z,14.80
2018-08-07T01:40:03.297Z,14.71
2018-08-07T01:41:03.282Z,14.71
2018-08-07T01:42:03.274Z,14.80
2018-08-07T01:43:03.259Z,14.78
2018-08-07T01:44:03.246Z,14.80
2018-08-07T01:45:03.236Z,14.79
2018-08-07T01:46:03.221Z,14.90
2018-08-07T01:47:03.209Z,14.91
2018-08-07T01:48:03.197Z,14.87
2018-08-07T01:49:03.184Z,14.83
2018-08-07T01:50:03.173Z,14.82
2018-08-07T01:51:03.160Z,14.83
2018-08-07T01:52:03.148Z,14.78
2018-08-07T01:53:03.137Z,14.83
2018-08-07T01:54:03.124Z,14.67
2018-08-07T01:55:03.115Z,14.78
2018-08-07T01:56:03.100Z,14.71
2018-08-07T01:57:03.086Z,14.78
2018-08-07T01:58:03.074Z,14.74
2018-08-07T01:59:03.062Z,14.78
2018-08-07T02:00:03.051Z,14.64
2018-08-07T02:01:03.037Z,14.69
2018-08-07T02:02:03.026Z,14.71
2018-08-07T02:03:03.014Z,14.75
2018-08-07T02:04:03.002Z,14.67
2018-08-07T02:05:02.988Z,14.69
2018-08-07T02:06:02.976Z,14.66
2018-08-07T02:07:02.966Z,14.63
2018-08-07T02:08:02.953Z,14.64
2018-08-07T02:09:02.939Z,14.75
2018-08-07T02:10:02.927Z,14.69
2018-08-07T02:11:02.915Z,14.69
2018-08-07T02:12:02.902Z,14.66
2018-08-07T02:13:02.890Z,14.72
2018-08-07T02:14:02.877Z,14.71
2018-08-07T02:15:02.865Z,14.67
2018-08-07T02:16:02.853Z,14.72
2018-08-07T02:17:02.840Z,14.74
2018-08-07T02:18:02.829Z,14.66
2018-08-07T02:19:02.817Z,14.71
2018-08-07T02:20:02.804Z,14.69
2018-08-07T02:21:02.790Z,14.63
2018-08-07T02:22:02.787Z,14.72
2018-08-07T02:23:02.765Z,14.67
2018-08-07T02:24:02.753Z,14.69
2018-08-07T02:25:02.740Z,14.74
2018-08-07T02:26:02.727Z,14.78
2018-08-07T02:27:02.715Z,14.86
2018-08-07T02:28:02.705Z,14.69
2018-08-07T02:29:02.745Z,14.87
2018-08-07T02:30:02.698Z,14.78
2018-08-07T02:31:02.666Z,14.72
2018-08-07T02:32:02.654Z,14.72
2018-08-07T02:33:02.641Z,14.79
2018-08-07T02:34:02.629Z,14.85
2018-08-07T02:35:02.617Z,14.66
2018-08-07T02:36:02.605Z,14.72
2018-08-07T02:37:02.592Z,14.71
2018-08-07T02:38:02.580Z,14.66
2018-08-07T02:39:02.567Z,14.72
2018-08-07T02:40:02.556Z,14.67
2018-08-07T02:41:02.542Z,14.71
2018-08-07T02:42:02.530Z,14.72
2018-08-07T02:43:02.517Z,14.79
2018-08-07T02:44:02.505Z,14.72
2018-08-07T02:45:02.493Z,14.74
2018-08-07T02:46:02.480Z,14.71
2018-08-07T02:47:02.468Z,14.63
2018-08-07T02:48:02.456Z,14.57
2018-08-07T02:49:02.450Z,14.64
2018-08-07T02:50:02.435Z,14.54
2018-08-07T02:51:02.419Z,14.57
2018-08-07T02:52:02.406Z,14.67
2018-08-07T02:53:02.393Z,14.64
2018-08-07T02:54:02.381Z,14.63
2018-08-07T02:55:02.368Z,14.61
2018-08-07T02:56:02.356Z,14.63
2018-08-07T02:57:02.343Z,14.64
2018-08-07T02:58:02.343Z,14.67
2018-08-07T02:59:02.318Z,14.54
2018-08-07T03:00:02.307Z,14.60
2018-08-07T03:01:02.292Z,14.67
2018-08-07T03:02:02.283Z,14.71
2018-08-07T03:03:02.271Z,14.71
2018-08-07T03:04:02.255Z,14.52
2018-08-07T03:05:02.243Z,14.49
2018-08-07T03:06:02.231Z,14.52
2018-08-07T03:07:02.218Z,14.48
2018-08-07T03:08:02.210Z,14.46
2018-08-07T03:09:02.192Z,14.52
2018-08-07T03:10:02.181Z,14.41
2018-08-07T03:11:02.169Z,14.36
2018-08-07T03:12:02.155Z,14.42
2018-08-07T03:13:02.141Z,14.42
2018-08-07T03:14:02.129Z,14.46
2018-08-07T03:15:02.122Z,14.52
2018-08-07T03:16:02.106Z,14.49
2018-08-07T03:17:02.094Z,14.39
2018-08-07T03:18:02.079Z,14.31
2018-08-07T03:19:02.070Z,14.41
2018-08-07T03:20:02.056Z,14.41
2018-08-07T03:21:02.041Z,14.42
2018-08-07T03:22:02.028Z,14.36
2018-08-07T03:23:02.016Z,14.44
2018-08-07T03:24:02.013Z,14.39
2018-08-07T03:25:01.990Z,14.41
2018-08-07T03:26:01.979Z,14.44
2018-08-07T03:27:01.965Z,14.41
2018-08-07T03:28:01.954Z,14.41
2018-08-07T03:29:01.939Z,14.42
2018-08-07T03:30:01.935Z,14.34
2018-08-07T03:31:01.914Z,14.31
2018-08-07T03:32:01.901Z,14.21
2018-08-07T03:33:01.887Z,14.26
2018-08-07T03:34:01.875Z,14.17
2018-08-07T03:35:01.862Z,14.16
2018-08-07T03:36:01.850Z,14.17
2018-08-07T03:37:01.836Z,14.17
2018-08-07T03:38:01.824Z,14.20
2018-08-07T03:39:01.813Z,14.17
2018-08-07T03:40:01.798Z,14.09
2018-08-07T03:41:01.783Z,14.12
2018-08-07T03:42:01.771Z,14.12
2018-08-07T03:43:01.760Z,14.11
2018-08-07T03:44:01.750Z,14.13
2018-08-07T03:45:01.732Z,14.06
2018-08-07T03:46:01.720Z,14.08
2018-08-07T03:47:01.707Z,14.05
2018-08-07T03:48:01.694Z,13.98
2018-08-07T03:49:01.680Z,14.02
2018-08-07T03:50:01.668Z,14.01
2018-08-07T03:51:01.862Z,13.98
2018-08-07T03:52:01.642Z,13.96
2018-08-07T03:53:01.643Z,13.93
2018-08-07T03:54:01.616Z,13.93
2018-08-07T03:55:01.602Z,14.04
2018-08-07T03:56:01.591Z,14.02
2018-08-07T03:57:01.676Z,14.02
2018-08-07T03:58:01.563Z,13.93
2018-08-07T03:59:01.601Z,13.91
2018-08-07T04:00:01.538Z,13.96
2018-08-07T04:01:01.523Z,13.94
2018-08-07T04:02:01.510Z,13.90
2018-08-07T04:03:01.499Z,13.83
2018-08-07T04:04:01.485Z,13.87
2018-08-07T04:05:01.578Z,13.83
2018-08-07T04:06:01.458Z,13.88
2018-08-07T04:07:01.444Z,13.83
2018-08-07T04:08:01.432Z,13.90
2018-08-07T04:09:01.418Z,13.93
2018-08-07T04:10:01.404Z,13.88
2018-08-07T04:11:01.391Z,13.93
2018-08-07T04:12:01.379Z,13.96
2018-08-07T04:13:01.364Z,14.05
2018-08-07T04:14:01.351Z,13.98
2018-08-07T04:15:01.438Z,13.94
2018-08-07T04:16:01.326Z,13.94
2018-08-07T04:17:01.312Z,14.02
2018-08-07T04:18:01.299Z,13.94
2018-08-07T04:19:01.285Z,13.93
2018-08-07T04:20:01.273Z,13.96
2018-08-07T04:21:01.258Z,13.91
2018-08-07T04:22:01.246Z,13.87
2018-08-07T04:23:01.232Z,13.75
2018-08-07T04:24:01.221Z,13.84
2018-08-07T04:25:01.206Z,13.84
2018-08-07T04:26:01.225Z,13.81
2018-08-07T04:27:01.180Z,13.87
2018-08-07T04:28:01.167Z,13.87
2018-08-07T04:29:01.153Z,13.87
2018-08-07T04:30:01.145Z,13.93
2018-08-07T04:31:01.127Z,13.84
2018-08-07T04:32:01.116Z,13.90
2018-08-07T04:33:01.201Z,13.83
2018-08-07T04:34:01.089Z,13.84
2018-08-07T04:35:01.074Z,13.86
2018-08-07T04:36:01.061Z,13.87
2018-08-07T04:37:01.047Z,13.71
2018-08-07T04:38:01.035Z,13.86
2018-08-07T04:39:01.021Z,13.83
2018-08-07T04:40:01.009Z,13.81
2018-08-07T04:41:00.995Z,13.90
2018-08-07T04:42:00.983Z,13.86
2018-08-07T04:43:00.969Z,13.84
2018-08-07T04:44:00.957Z,13.75
2018-08-07T04:45:00.942Z,13.80
2018-08-07T04:46:00.930Z,13.81
2018-08-07T04:47:00.916Z,13.80
2018-08-07T04:48:00.904Z,13.81
2018-08-07T04:49:00.890Z,13.72
2018-08-07T04:50:00.878Z,13.83
2018-08-07T04:51:00.863Z,13.75
2018-08-07T04:52:00.851Z,13.68
2018-08-07T04:53:00.837Z,13.61
2018-08-07T04:54:00.824Z,13.51
2018-08-07T04:55:00.817Z,13.48
2018-08-07T04:56:00.798Z,13.48
2018-08-07T04:57:00.934Z,13.50
2018-08-07T04:58:00.773Z,13.48
2018-08-07T04:59:00.757Z,13.62
2018-08-07T05:00:00.744Z,13.53
2018-08-07T05:01:00.731Z,13.66
2018-08-07T05:02:00.718Z,13.61
2018-08-07T05:03:00.707Z,13.59
2018-08-07T05:04:00.691Z,13.51
2018-08-07T05:05:00.676Z,13.63
2018-08-07T05:06:00.663Z,13.62
2018-08-07T05:07:00.651Z,13.68
2018-08-07T05:08:00.637Z,13.62
2018-08-07T05:09:00.624Z,13.63
2018-08-07T05:10:00.609Z,13.68
2018-08-07T05:11:00.596Z,13.69
2018-08-07T05:12:00.590Z,13.72
2018-08-07T05:13:00.570Z,13.62
2018-08-07T05:14:00.563Z,13.65
2018-08-07T05:15:00.643Z,13.65
2018-08-07T05:16:00.530Z,13.66
2018-08-07T05:17:00.516Z,13.68
2018-08-07T05:18:00.504Z,13.61
2018-08-07T05:19:00.491Z,13.72
2018-08-07T05:20:00.477Z,13.75
2018-08-07T05:21:00.614Z,13.79
2018-08-07T05:22:00.449Z,13.71
2018-08-07T05:23:00.438Z,13.72
2018-08-07T05:24:00.424Z,13.86
2018-08-07T05:25:00.410Z,13.69
2018-08-07T05:26:00.397Z,13.65
2018-08-07T05:27:00.484Z,13.75
2018-08-07T05:28:00.371Z,13.73
2018-08-07T05:29:00.357Z,13.65
2018-08-07T05:30:00.385Z,13.71
2018-08-07T05:31:00.334Z,13.75
2018-08-07T05:32:00.320Z,13.68
2018-08-07T05:33:00.404Z,13.71
2018-08-07T05:34:00.290Z,13.80
2018-08-07T05:35:00.280Z,13.75
2018-08-07T05:36:00.325Z,13.88
2018-08-07T05:37:00.251Z,13.84
2018-08-07T05:38:00.238Z,13.91
2018-08-07T05:39:00.325Z,13.86
2018-08-07T05:40:00.212Z,13.90
2018-08-07T05:41:00.198Z,13.98
2018-08-07T05:42:00.186Z,13.99
2018-08-07T05:43:00.174Z,13.96
2018-08-07T05:44:00.161Z,13.98
2018-08-07T05:45:00.246Z,13.99
2018-08-07T05:46:00.133Z,13.98
2018-08-07T05:47:00.121Z,13.94
2018-08-07T05:48:00.108Z,13.93
2018-08-07T05:49:00.095Z,13.91
2018-08-07T05:50:00.110Z,13.88
2018-08-07T05:51:00.432Z,13.90
2018-08-07T05:52:00.060Z,13.98
2018-08-07T05:53:00.042Z,13.98
2018-08-07T05:54:00.032Z,13.90
2018-08-07T05:55:00.017Z,13.98
2018-08-07T05:56:00.003Z,13.93
2018-08-07T05:57:00.140Z,13.94
2018-08-07T05:58:00.021Z,13.98
2018-08-07T05:58:59.963Z,14.02
2018-08-07T05:59:59.950Z,13.99
2018-08-07T06:00:59.938Z,14.05
2018-08-07T06:01:59.925Z,13.98
2018-08-07T06:03:00.064Z,14.02
2018-08-07T06:03:59.898Z,14.01
2018-08-07T06:04:59.885Z,14.08
2018-08-07T06:05:59.874Z,14.09
2018-08-07T06:06:59.859Z,14.06
2018-08-07T06:07:59.847Z,14.21
2018-08-07T06:08:59.935Z,14.06
2018-08-07T06:09:59.822Z,14.06
2018-08-07T06:10:59.808Z,14.13
2018-08-07T06:11:59.803Z,14.17
2018-08-07T06:12:59.782Z,14.13
2018-08-07T06:13:59.770Z,14.19
2018-08-07T06:14:59.858Z,14.06
2018-08-07T06:15:59.743Z,14.08
2018-08-07T06:16:59.730Z,14.13
2018-08-07T06:17:59.717Z,14.19
2018-08-07T06:18:59.726Z,14.17
2018-08-07T06:19:59.692Z,14.19
2018-08-07T06:20:59.679Z,14.12
2018-08-07T06:21:59.666Z,14.16
2018-08-07T06:22:59.653Z,14.12
2018-08-07T06:23:59.640Z,14.06
2018-08-07T06:24:59.627Z,14.17
2018-08-07T06:25:59.614Z,14.16
2018-08-07T06:26:59.601Z,14.20
2018-08-07T06:27:59.589Z,14.16
2018-08-07T06:28:59.575Z,14.12
2018-08-07T06:29:59.571Z,14.16
2018-08-07T06:30:59.550Z,14.13
2018-08-07T06:31:59.539Z,14.20
2018-08-07T06:32:59.635Z,14.17
2018-08-07T06:33:59.512Z,14.20
2018-08-07T06:34:59.498Z,14.26
2018-08-07T06:35:59.490Z,14.19
2018-08-07T06:36:59.472Z,14.17
2018-08-07T06:37:59.463Z,14.12
2018-08-07T06:38:59.446Z,14.02
2018-08-07T06:39:59.434Z,14.08
2018-08-07T06:40:59.420Z,14.06
2018-08-07T06:41:59.408Z,14.11
2018-08-07T06:42:59.455Z,14.16
2018-08-07T06:43:59.383Z,14.17
2018-08-07T06:44:59.469Z,14.19
2018-08-07T06:45:59.357Z,14.17
2018-08-07T06:46:59.343Z,14.23
2018-08-07T06:47:59.347Z,14.16
2018-08-07T06:48:59.317Z,14.26
2018-08-07T06:49:59.305Z,14.26
2018-08-07T06:50:59.292Z,14.24
2018-08-07T06:51:59.280Z,14.27
2018-08-07T06:52:59.268Z,14.31
2018-08-07T06:53:59.256Z,14.31
2018-08-07T06:54:59.242Z,14.31
2018-08-07T06:55:59.230Z,14.35
2018-08-07T06:56:59.236Z,14.27
2018-08-07T06:57:59.207Z,14.29
2018-08-07T06:58:59.191Z,14.30
2018-08-07T06:59:59.178Z,14.30
2018-08-07T07:00:59.163Z,14.38
2018-08-07T07:01:59.151Z,14.26
2018-08-07T07:02:59.240Z,14.35
2018-08-07T07:03:59.128Z,14.31
2018-08-07T07:04:59.115Z,14.29
2018-08-07T07:05:59.100Z,14.36
2018-08-07T07:06:59.088Z,14.34
2018-08-07T07:07:59.076Z,14.30
2018-08-07T07:08:59.165Z,14.21
2018-08-07T07:09:59.049Z,14.24
2018-08-07T07:10:59.036Z,14.26
2018-08-07T07:11:59.024Z,14.36
2018-08-07T07:12:59.020Z,14.31
2018-08-07T07:13:58.997Z,14.38
2018-08-07T07:14:59.116Z,14.30
2018-08-07T07:15:58.972Z,14.34
2018-08-07T07:16:58.966Z,14.38
2018-08-07T07:17:58.947Z,14.35
2018-08-07T07:18:58.936Z,14.38
2018-08-07T07:19:58.922Z,14.38
2018-08-07T07:20:58.937Z,14.27
2018-08-07T07:21:58.897Z,14.42
2018-08-07T07:22:58.884Z,14.34
2018-08-07T07:23:58.871Z,14.35
2018-08-07T07:24:58.859Z,14.30
2018-08-07T07:25:58.845Z,14.29
2018-08-07T07:26:58.836Z,14.20
2018-08-07T07:27:58.820Z,14.13
2018-08-07T07:28:58.808Z,14.19
2018-08-07T07:29:58.794Z,14.23
2018-08-07T07:30:58.803Z,14.21
2018-08-07T07:31:58.771Z,14.12
2018-08-07T07:32:58.905Z,14.21
2018-08-07T07:33:58.771Z,14.26
2018-08-07T07:34:58.730Z,14.26
2018-08-07T07:35:58.720Z,14.24
2018-08-07T07:36:58.706Z,14.27
2018-08-07T07:37:58.694Z,14.24
2018-08-07T07:38:58.781Z,14.23
2018-08-07T07:39:58.668Z,14.23
2018-08-07T07:40:58.655Z,14.19
2018-08-07T07:41:58.642Z,14.23
2018-08-07T07:42:58.632Z,14.29
2018-08-07T07:43:58.617Z,14.26
2018-08-07T07:44:58.604Z,14.27
2018-08-07T07:45:58.592Z,14.27
2018-08-07T07:46:58.686Z,14.20
2018-08-07T07:47:58.565Z,14.13
2018-08-07T07:48:58.552Z,14.11
2018-08-07T07:49:58.541Z,14.17
2018-08-07T07:50:58.528Z,14.13
2018-08-07T07:51:58.514Z,14.21
2018-08-07T07:52:58.501Z,14.20
2018-08-07T07:53:58.528Z,14.17
2018-08-07T07:54:58.475Z,14.11
2018-08-07T07:55:58.462Z,14.20
2018-08-07T07:56:58.599Z,14.27
2018-08-07T07:57:58.440Z,14.29
2018-08-07T07:58:58.425Z,14.35
2018-08-07T07:59:58.411Z,14.38
2018-08-07T08:00:58.397Z,14.31
2018-08-07T08:01:58.386Z,14.38
2018-08-07T08:02:58.472Z,14.36
2018-08-07T08:03:58.359Z,14.41
2018-08-07T08:04:58.346Z,14.35
2018-08-07T08:05:58.349Z,14.36
2018-08-07T08:06:58.335Z,14.26
2018-08-07T08:07:58.309Z,14.38
2018-08-07T08:08:58.395Z,14.27
2018-08-07T08:09:58.282Z,14.27
2018-08-07T08:10:58.272Z,14.31
2018-08-07T08:11:58.257Z,14.27
2018-08-07T08:12:58.244Z,14.29
2018-08-07T08:13:58.231Z,14.29
2018-08-07T08:14:58.422Z,14.35
2018-08-07T08:15:58.208Z,14.24
2018-08-07T08:16:58.193Z,14.20
2018-08-07T08:17:58.180Z,14.20
2018-08-07T08:18:58.167Z,14.26
2018-08-07T08:19:58.154Z,14.27
2018-08-07T08:20:58.141Z,14.29
2018-08-07T08:21:58.128Z,14.26
2018-08-07T08:22:58.116Z,14.35
2018-08-07T08:23:58.103Z,14.34
2018-08-07T08:24:58.090Z,14.30
2018-08-07T08:25:58.077Z,14.34
2018-08-07T08:26:58.064Z,14.30
2018-08-07T08:27:58.052Z,14.39
2018-08-07T08:28:58.062Z,14.35
2018-08-07T08:29:58.121Z,14.35
2018-08-07T08:30:58.013Z,14.36
2018-08-07T08:31:58.000Z,14.41
2018-08-07T08:32:58.088Z,14.34
2018-08-07T08:33:57.974Z,14.38
2018-08-07T08:34:58.018Z,14.41
2018-08-07T08:35:57.949Z,14.42
2018-08-07T08:36:57.935Z,14.29
2018-08-07T08:37:57.923Z,14.36
2018-08-07T08:38:57.910Z,14.34
2018-08-07T08:39:57.898Z,14.38
2018-08-07T08:40:57.900Z,14.42
2018-08-07T08:41:57.872Z,14.35
2018-08-07T08:42:57.862Z,14.45
2018-08-07T08:43:57.848Z,14.35
2018-08-07T08:44:57.935Z,14.34
2018-08-07T08:45:57.821Z,14.34
2018-08-07T08:46:57.809Z,14.30
2018-08-07T08:47:57.828Z,14.24
2018-08-07T08:48:57.784Z,14.20
2018-08-07T08:49:57.772Z,14.31
2018-08-07T08:50:57.857Z,14.26
2018-08-07T08:51:57.745Z,14.35
2018-08-07T08:52:57.733Z,14.30
2018-08-07T08:53:57.760Z,14.27
2018-08-07T08:54:57.707Z,14.34
2018-08-07T08:55:57.694Z,14.21
2018-08-07T08:56:57.682Z,14.27
2018-08-07T08:57:57.667Z,14.17
2018-08-07T08:58:57.655Z,14.26
2018-08-07T08:59:57.642Z,14.26
2018-08-07T09:00:57.630Z,14.29
2018-08-07T09:01:57.617Z,14.17
2018-08-07T09:02:57.805Z,14.21
2018-08-07T09:03:57.593Z,14.13
2018-08-07T09:04:57.654Z,14.21
2018-08-07T09:05:57.565Z,14.13
2018-08-07T09:06:57.553Z,14.21
2018-08-07T09:07:57.540Z,14.17
2018-08-07T09:08:57.526Z,14.13
2018-08-07T09:09:57.513Z,14.20
2018-08-07T09:10:57.501Z,14.23
2018-08-07T09:11:57.489Z,14.19
2018-08-07T09:12:57.474Z,14.13
2018-08-07T09:13:57.462Z,14.12
2018-08-07T09:14:57.449Z,14.17
2018-08-07T09:15:57.436Z,14.17
2018-08-07T09:16:57.424Z,14.06
2018-08-07T09:17:57.409Z,14.06
2018-08-07T09:18:57.396Z,14.11
2018-08-07T09:19:57.389Z,14.01
2018-08-07T09:20:57.470Z,14.06
2018-08-07T09:21:57.360Z,14.16
2018-08-07T09:22:57.346Z,14.06
2018-08-07T09:23:57.336Z,14.05
2018-08-07T09:24:57.317Z,14.08
2018-08-07T09:25:57.507Z,13.99
2018-08-07T09:26:57.295Z,13.94
2018-08-07T09:27:57.279Z,13.96
2018-08-07T09:28:57.265Z,14.05
2018-08-07T09:29:57.253Z,13.99
2018-08-07T09:30:57.239Z,13.99
2018-08-07T09:31:57.314Z,13.96
2018-08-07T09:32:57.274Z,13.99
2018-08-07T09:33:57.200Z,13.96
2018-08-07T09:34:57.187Z,13.91
2018-08-07T09:35:57.174Z,13.94
2018-08-07T09:36:57.165Z,13.93
2018-08-07T09:37:57.146Z,13.96
2018-08-07T09:38:57.134Z,13.94
2018-08-07T09:39:57.148Z,13.98
2018-08-07T09:40:57.107Z,13.96
2018-08-07T09:41:57.095Z,13.94
2018-08-07T09:42:57.083Z,13.96
2018-08-07T09:43:57.068Z,13.96
2018-08-07T09:44:57.156Z,14.05
2018-08-07T09:45:57.042Z,13.94
2018-08-07T09:46:57.032Z,13.99
2018-08-07T09:47:57.020Z,14.05
2018-08-07T09:48:57.001Z,13.98
2018-08-07T09:49:56.989Z,13.99
2018-08-07T09:50:56.975Z,13.99
2018-08-07T09:51:56.963Z,14.04
2018-08-07T09:52:56.950Z,14.02
2018-08-07T09:53:56.936Z,13.98
2018-08-07T09:54:56.923Z,13.93
2018-08-07T09:55:56.910Z,14.02
2018-08-07T09:56:56.896Z,14.04
2018-08-07T09:57:56.885Z,13.98
2018-08-07T09:58:56.870Z,14.01
2018-08-07T09:59:56.857Z,13.96
2018-08-07T10:00:56.844Z,14.02
2018-08-07T10:01:56.831Z,13.98
2018-08-07T10:02:56.918Z,14.02
2018-08-07T10:03:56.806Z,14.08
2018-08-07T10:04:56.791Z,14.08
2018-08-07T10:05:56.778Z,14.02
2018-08-07T10:06:56.766Z,14.06
2018-08-07T10:07:56.754Z,14.08
2018-08-07T10:08:56.739Z,14.09
2018-08-07T10:09:56.727Z,14.12
2018-08-07T10:10:56.713Z,14.20
2018-08-07T10:11:56.700Z,14.13
2018-08-07T10:12:56.686Z,14.11
2018-08-07T10:13:56.673Z,14.01
2018-08-07T10:14:56.764Z,14.09
2018-08-07T10:15:56.649Z,14.13
2018-08-07T10:16:56.633Z,14.09
2018-08-07T10:17:56.647Z,14.02
2018-08-07T10:18:56.608Z,14.01
2018-08-07T10:19:56.595Z,14.01
2018-08-07T10:20:56.681Z,13.99
2018-08-07T10:21:56.569Z,14.04
2018-08-07T10:22:56.555Z,14.06
2018-08-07T10:23:56.542Z,14.17
2018-08-07T10:24:56.529Z,14.09
2018-08-07T10:25:56.516Z,14.11
2018-08-07T10:26:56.503Z,14.16
2018-08-07T10:27:56.491Z,14.09
2018-08-07T10:28:56.477Z,14.17
2018-08-07T10:29:56.464Z,14.19
2018-08-07T10:30:56.451Z,14.17
2018-08-07T10:31:56.438Z,14.13
2018-08-07T10:32:56.427Z,14.17
2018-08-07T10:33:56.412Z,14.09
2018-08-07T10:34:56.413Z,14.06
2018-08-07T10:35:56.386Z,14.09
2018-08-07T10:36:56.372Z,14.05
2018-08-07T10:37:56.361Z,14.01
2018-08-07T10:38:56.347Z,13.98
2018-08-07T10:39:56.333Z,14.09
2018-08-07T10:40:56.395Z,14.01
2018-08-07T10:41:56.307Z,14.13
2018-08-07T10:42:56.302Z,14.16
2018-08-07T10:43:56.331Z,14.16
2018-08-07T10:44:56.369Z,14.08
2018-08-07T10:45:56.255Z,14.19
2018-08-07T10:46:56.242Z,14.17
2018-08-07T10:47:56.234Z,14.09
2018-08-07T10:48:56.217Z,14.05
2018-08-07T10:49:56.203Z,14.06
2018-08-07T10:50:56.276Z,14.08
2018-08-07T10:51:56.178Z,14.05
2018-08-07T10:52:56.163Z,14.02
2018-08-07T10:53:56.153Z,14.04
2018-08-07T10:54:56.139Z,13.96
2018-08-07T10:55:56.125Z,14.01
2018-08-07T10:56:56.211Z,14.02
2018-08-07T10:57:56.098Z,14.01
2018-08-07T10:58:56.086Z,14.17
2018-08-07T10:59:56.072Z,14.12
2018-08-07T11:00:56.059Z,14.17
2018-08-07T11:01:56.046Z,13.99
2018-08-07T11:02:56.034Z,13.99
2018-08-07T11:03:56.020Z,14.01
2018-08-07T11:04:56.006Z,14.05
2018-08-07T11:05:55.993Z,14.04
2018-08-07T11:06:55.981Z,14.09
2018-08-07T11:07:55.967Z,13.99
2018-08-07T11:08:55.953Z,14.08
2018-08-07T11:09:55.941Z,14.02
2018-08-07T11:10:55.928Z,14.13
2018-08-07T11:11:55.916Z,14.11
2018-08-07T11:12:55.920Z,14.02
2018-08-07T11:13:55.888Z,14.16
2018-08-07T11:14:55.875Z,14.11
2018-08-07T11:15:55.863Z,14.13
2018-08-07T11:16:55.849Z,14.12
2018-08-07T11:17:55.836Z,14.19
2018-08-07T11:18:55.823Z,14.17
2018-08-07T11:19:55.812Z,14.16
2018-08-07T11:20:55.796Z,14.27
2018-08-07T11:21:55.784Z,14.21
2018-08-07T11:22:55.771Z,14.26
2018-08-07T11:23:55.758Z,14.17
2018-08-07T11:24:55.746Z,14.13
2018-08-07T11:25:55.731Z,14.29
2018-08-07T11:26:55.719Z,14.26
2018-08-07T11:27:55.707Z,14.29
2018-08-07T11:28:55.694Z,14.34
2018-08-07T11:29:55.709Z,14.29
2018-08-07T11:30:55.669Z,14.29
2018-08-07T11:31:55.656Z,14.29
2018-08-07T11:32:55.643Z,14.27
2018-08-07T11:33:55.627Z,14.34
2018-08-07T11:34:55.616Z,14.26
2018-08-07T11:35:55.658Z,14.38
2018-08-07T11:36:55.589Z,14.41
2018-08-07T11:37:55.579Z,14.34
2018-08-07T11:38:55.663Z,14.44
2018-08-07T11:39:55.551Z,14.49
2018-08-07T11:40:55.537Z,14.53
2018-08-07T11:41:55.525Z,14.49
2018-08-07T11:42:55.517Z,14.61
2018-08-07T11:43:55.500Z,14.53
2018-08-07T11:44:55.487Z,14.64
2018-08-07T11:45:55.474Z,14.72
2018-08-07T11:46:55.461Z,14.59
2018-08-07T11:47:55.509Z,14.49
2018-08-07T11:48:55.445Z,14.56
2018-08-07T11:49:55.423Z,14.67
2018-08-07T11:50:55.411Z,14.69
2018-08-07T11:51:55.399Z,14.69
2018-08-07T11:52:55.387Z,14.69
2018-08-07T11:53:55.373Z,14.86
2018-08-07T11:54:55.462Z,14.72
2018-08-07T11:55:55.348Z,14.72
2018-08-07T11:56:55.335Z,14.69
2018-08-07T11:57:55.330Z,14.67
2018-08-07T11:58:55.314Z,14.74
2018-08-07T11:59:55.298Z,14.69
2018-08-07T12:00:55.386Z,14.80
2018-08-07T12:01:55.292Z,14.71
2018-08-07T12:02:55.264Z,14.82
2018-08-07T12:03:55.248Z,14.71
2018-08-07T12:04:55.239Z,14.75
2018-08-07T12:06:55.312Z,14.82
2018-08-07T12:07:55.253Z,14.79
2018-08-07T12:08:55.184Z,14.75
2018-08-07T12:09:55.176Z,14.72
2018-08-07T12:10:55.161Z,14.83
2018-08-07T12:11:55.248Z,14.74
2018-08-07T12:12:55.135Z,14.90
2018-08-07T12:13:55.123Z,14.86
2018-08-07T12:14:55.113Z,14.87
2018-08-07T12:15:55.099Z,14.95
2018-08-07T12:16:55.086Z,15.00
2018-08-07T12:17:55.075Z,15.01
2018-08-07T12:18:55.061Z,15.00
2018-08-07T12:19:55.050Z,15.01
2018-08-07T12:20:55.037Z,15.03
2018-08-07T12:21:55.025Z,15.04
2018-08-07T12:22:55.012Z,15.05
2018-08-07T12:23:55.000Z,15.00
2018-08-07T12:24:54.998Z,15.04
2018-08-07T12:25:54.975Z,15.09
2018-08-07T12:26:54.964Z,15.07
2018-08-07T12:27:54.951Z,15.13
2018-08-07T12:28:54.938Z,15.13
2018-08-07T12:29:55.027Z,15.09
2018-08-07T12:30:54.913Z,15.11
2018-08-07T12:31:54.903Z,15.09
2018-08-07T12:32:54.888Z,15.11
2018-08-07T12:33:54.876Z,15.18
2018-08-07T12:34:54.865Z,15.03
2018-08-07T12:35:54.957Z,15.05
2018-08-07T12:36:54.839Z,15.11
2018-08-07T12:37:54.832Z,15.16
2018-08-07T12:38:54.815Z,15.22
2018-08-07T12:39:54.805Z,15.30
2018-08-07T12:40:54.791Z,15.23
2018-08-07T12:41:54.878Z,15.22
2018-08-07T12:42:54.767Z,15.27
2018-08-07T12:43:54.755Z,15.31
2018-08-07T12:44:54.743Z,15.31
2018-08-07T12:45:54.730Z,15.43
2018-08-07T12:46:54.740Z,15.34
2018-08-07T12:47:54.708Z,15.38
2018-08-07T12:48:54.693Z,15.35
2018-08-07T12:49:54.682Z,15.48
2018-08-07T12:50:54.671Z,15.40
2018-08-07T12:51:54.659Z,15.40
2018-08-07T12:52:54.646Z,15.35